createdAt,value
2022-07-26T00:01:40.653Z,101137.19
2022-07-26T00:06:42.846Z,101142.78
2022-07-26T00:12:09.768Z,101162.34
2022-07-26T00:17:12.408Z,101164.25
2022-07-26T00:22:32.336Z,101167.34
2022-07-26T00:27:38.919Z,101173.56
2022-07-26T00:32:40.893Z,101180.09
2022-07-26T00:37:42.584Z,101176.47
2022-07-26T00:42:44.884Z,101166.38
2022-07-26T00:47:46.601Z,101170.78
2022-07-26T00:52:50.406Z,101173.91
2022-07-26T00:57:52.263Z,101184.59
2022-07-26T01:02:58.209Z,101187.66
2022-07-26T01:08:00.159Z,101189.41
2022-07-26T01:13:02.268Z,101197.59
2022-07-26T01:18:04.165Z,101196.16
2022-07-26T01:23:09.429Z,101195.75
2022-07-26T01:28:11.647Z,101200.44
2022-07-26T01:33:21.984Z,101198.28
2022-07-26T01:38:25.390Z,101194.78
2022-07-26T01:43:27.932Z,101189.50
2022-07-26T01:48:31.857Z,101197.84
2022-07-26T01:53:33.918Z,101211.31
2022-07-26T01:58:35.724Z,101218.00
2022-07-26T02:03:52.777Z,101205.75
2022-07-26T02:08:54.638Z,101213.50
2022-07-26T02:13:57.358Z,101210.84
2022-07-26T02:18:59.178Z,101200.91
2022-07-26T02:24:01.211Z,101210.69
2022-07-26T02:29:03.183Z,101203.25
2022-07-26T02:34:05.276Z,101211.72
2022-07-26T02:39:07.556Z,101210.06
2022-07-26T02:44:10.318Z,101217.53
2022-07-26T02:49:12.876Z,101214.13
2022-07-26T02:54:15.137Z,101218.44
2022-07-26T02:59:16.882Z,101219.53
2022-07-26T03:04:21.130Z,101215.03
2022-07-26T03:09:23.020Z,101216.72
2022-07-26T03:14:25.332Z,101229.28
2022-07-26T03:19:27.208Z,101227.13
2022-07-26T03:24:29.310Z,101241.38
2022-07-26T03:29:31.205Z,101236.81
2022-07-26T03:34:33.637Z,101237.81
2022-07-26T03:39:41.672Z,101254.13
2022-07-26T03:44:49.632Z,101258.91
2022-07-26T03:49:53.407Z,101258.28
2022-07-26T03:54:55.701Z,101275.19
2022-07-26T03:59:57.602Z,101282.34
2022-07-26T04:05:06.916Z,101291.88
2022-07-26T04:10:11.064Z,101292.56
2022-07-26T04:15:13.097Z,101292.53
2022-07-26T04:20:15.539Z,101295.81
2022-07-26T04:25:42.258Z,101306.53
2022-07-26T04:30:44.807Z,101305.59
2022-07-26T04:35:46.639Z,101313.28
2022-07-26T04:40:50.300Z,101314.25
2022-07-26T04:45:52.658Z,101311.88
2022-07-26T04:51:01.503Z,101313.00
2022-07-26T04:56:03.382Z,101322.81
2022-07-26T05:01:10.622Z,101333.94
2022-07-26T05:06:13.076Z,101331.34
2022-07-26T05:11:15.005Z,101346.97
2022-07-26T05:16:18.881Z,101351.44
2022-07-26T05:21:22.990Z,101357.03
2022-07-26T05:26:24.859Z,101361.97
2022-07-26T05:31:26.832Z,101366.50
2022-07-26T05:36:28.698Z,101371.84
2022-07-26T05:41:30.633Z,101383.72
2022-07-26T05:46:32.677Z,101390.84
2022-07-26T05:51:34.746Z,101403.09
2022-07-26T05:56:36.648Z,101411.34
2022-07-26T06:01:38.541Z,101407.75
2022-07-26T06:06:40.496Z,101417.00
2022-07-26T06:11:42.389Z,101435.97
2022-07-26T06:16:47.368Z,101438.91
2022-07-26T06:21:49.286Z,101438.28
2022-07-26T06:26:56.873Z,101447.50
2022-07-26T06:31:59.285Z,101468.03
2022-07-26T06:37:01.156Z,101474.50
2022-07-26T06:42:03.044Z,101485.06
2022-07-26T06:47:05.628Z,101491.06
2022-07-26T06:52:07.457Z,101494.53
2022-07-26T06:57:11.616Z,101496.63
2022-07-26T07:02:13.514Z,101496.16
2022-07-26T07:07:16.488Z,101502.59
2022-07-26T07:12:18.698Z,101497.13
2022-07-26T07:17:22.164Z,101508.13
2022-07-26T07:22:25.256Z,101512.69
2022-07-26T07:27:28.729Z,101509.81
2022-07-26T07:32:31.864Z,101513.94
2022-07-26T07:37:53.684Z,101512.13
2022-07-26T07:42:56.134Z,101526.03
2022-07-26T07:47:59.571Z,101529.47
2022-07-26T07:53:02.148Z,101537.00
2022-07-26T07:58:08.556Z,101552.19
2022-07-26T08:03:11.927Z,101552.31
2022-07-26T08:08:17.146Z,101549.44
2022-07-26T08:13:25.743Z,101545.84
2022-07-26T08:18:32.639Z,101547.16
2022-07-26T08:23:34.755Z,101553.22
2022-07-26T08:28:59.427Z,101561.25
2022-07-26T08:33:58.582Z,101584.31
2022-07-26T08:39:01.584Z,101592.78
2022-07-26T08:44:08.349Z,101587.38
2022-07-26T08:49:13.174Z,101604.31
2022-07-26T08:54:21.194Z,101614.31
2022-07-26T08:59:24.217Z,101617.47
2022-07-26T09:04:44.229Z,101624.31
2022-07-26T09:09:59.886Z,101623.19
2022-07-26T09:15:04.066Z,101624.75
2022-07-26T09:20:24.346Z,101642.53
2022-07-26T09:25:32.562Z,101651.81
2022-07-26T09:31:05.133Z,101661.53
2022-07-26T09:36:08.897Z,101660.53
2022-07-26T09:41:21.413Z,101677.16
2022-07-26T09:46:56.485Z,101681.53
2022-07-26T09:52:17.447Z,101680.09
2022-07-26T09:57:20.605Z,101694.88
2022-07-26T10:02:22.345Z,101693.44
2022-07-26T10:07:27.097Z,101701.41
2022-07-26T10:12:34.403Z,101703.34
2022-07-26T10:17:43.620Z,101700.78
2022-07-26T10:22:48.961Z,101697.75
2022-07-26T10:27:56.090Z,101691.81
2022-07-26T10:33:03.500Z,101698.34
2022-07-26T10:38:10.029Z,101706.59
2022-07-26T10:48:59.358Z,101710.16
2022-07-26T10:54:01.980Z,101705.44
2022-07-26T10:59:05.467Z,101699.59
2022-07-26T11:04:21.514Z,101718.56
2022-07-26T11:09:23.653Z,101722.63
2022-07-26T11:14:26.133Z,101723.34
2022-07-26T11:19:30.361Z,101734.59
2022-07-26T11:24:39.057Z,101728.09
2022-07-26T11:29:41.595Z,101735.31
2022-07-26T11:34:46.116Z,101742.88
2022-07-26T11:39:47.832Z,101751.81
2022-07-26T11:44:55.056Z,101741.06
2022-07-26T11:50:21.621Z,101748.53
2022-07-26T11:55:31.285Z,101755.00
2022-07-26T12:00:33.239Z,101759.44
2022-07-26T12:05:35.169Z,101748.56
2022-07-26T12:10:42.825Z,101753.72
2022-07-26T12:15:51.452Z,101766.69
2022-07-26T12:21:11.398Z,101767.28
2022-07-26T12:26:26.161Z,101778.16
2022-07-26T12:31:32.983Z,101777.78
2022-07-26T12:36:35.293Z,101782.44
2022-07-26T12:41:40.805Z,101782.78
2022-07-26T12:46:46.583Z,101789.72
2022-07-26T12:51:48.619Z,101780.84
2022-07-26T12:56:50.573Z,101787.66
2022-07-26T13:01:53.005Z,101773.16
2022-07-26T13:06:54.842Z,101776.69
2022-07-26T13:11:57.660Z,101781.94
2022-07-26T13:16:59.818Z,101776.03
2022-07-26T13:22:02.603Z,101787.25
2022-07-26T13:27:07.146Z,101787.03
2022-07-26T13:32:09.136Z,101799.16
2022-07-26T13:37:13.276Z,101790.00
2022-07-26T13:42:17.073Z,101790.50
2022-07-26T13:47:18.962Z,101804.16
2022-07-26T13:52:20.855Z,101802.94
2022-07-26T13:57:22.647Z,101814.81
2022-07-26T14:02:24.634Z,101805.28
2022-07-26T14:07:29.742Z,101812.44
2022-07-26T14:12:31.639Z,101821.75
2022-07-26T14:17:33.496Z,101819.47
2022-07-26T14:22:35.438Z,101825.50
2022-07-26T14:27:37.338Z,101832.72
2022-07-26T14:32:39.226Z,101830.94
2022-07-26T14:37:43.893Z,101836.13
2022-07-26T14:42:47.223Z,101855.63
2022-07-26T14:47:48.915Z,101855.38
2022-07-26T14:52:50.737Z,101855.13
2022-07-26T14:57:52.747Z,101846.34
2022-07-26T15:02:56.827Z,101850.44
2022-07-26T15:08:05.582Z,101851.88
2022-07-26T15:13:09.239Z,101846.38
2022-07-26T15:18:11.033Z,101844.16
2022-07-26T15:23:13.848Z,101843.16
2022-07-26T15:28:16.720Z,101844.16
2022-07-26T15:33:20.086Z,101831.31
2022-07-26T15:38:22.644Z,101835.47
2022-07-26T15:43:46.090Z,101840.34
2022-07-26T15:48:47.462Z,101847.81
2022-07-26T15:53:49.339Z,101843.69
2022-07-26T15:58:51.086Z,101844.50
2022-07-26T16:03:52.742Z,101844.44
2022-07-26T16:09:15.557Z,101848.19
2022-07-26T16:14:18.601Z,101847.09
2022-07-26T16:19:20.483Z,101844.00
2022-07-26T16:24:23.061Z,101848.28
2022-07-26T16:29:28.649Z,101850.66
2022-07-26T16:34:32.741Z,101845.59
2022-07-26T16:39:35.634Z,101843.28
2022-07-26T16:44:39.368Z,101834.63
2022-07-26T16:49:41.239Z,101846.09
2022-07-26T16:54:43.814Z,101854.78
2022-07-26T16:59:45.565Z,101859.63
2022-07-26T17:04:47.243Z,101853.00
2022-07-26T17:09:49.066Z,101872.00
2022-07-26T17:14:51.672Z,101872.97
2022-07-26T17:19:54.548Z,101865.59
2022-07-26T17:30:13.612Z,101846.41
2022-07-26T17:35:15.819Z,101856.69
2022-07-26T17:40:17.955Z,101862.34
2022-07-26T17:45:20.344Z,101860.75
2022-07-26T17:50:38.595Z,101871.69
2022-07-26T17:55:40.592Z,101874.25
2022-07-26T18:00:45.467Z,101869.78
2022-07-26T18:05:47.649Z,101875.09
2022-07-26T18:10:51.375Z,101872.53
2022-07-26T18:15:53.612Z,101881.09
2022-07-26T18:20:55.333Z,101875.97
2022-07-26T18:25:59.264Z,101875.97
2022-07-26T18:31:01.155Z,101877.38
2022-07-26T18:36:03.043Z,101874.41
2022-07-26T18:41:05.086Z,101879.31
2022-07-26T18:46:07.245Z,101882.56
2022-07-26T18:51:09.130Z,101882.97
2022-07-26T18:56:10.985Z,101872.31
2022-07-26T19:01:13.570Z,101872.84
2022-07-26T19:06:15.493Z,101884.69
2022-07-26T19:11:45.921Z,101890.91
2022-07-26T19:16:47.988Z,101895.44
2022-07-26T19:21:53.740Z,101893.72
2022-07-26T19:26:59.869Z,101885.81
2022-07-26T19:32:01.896Z,101889.25
2022-07-26T19:37:03.729Z,101892.72
2022-07-26T19:42:05.628Z,101896.16
2022-07-26T19:47:07.842Z,101888.84
2022-07-26T19:52:11.725Z,101895.72
2022-07-26T19:57:23.066Z,101905.41
2022-07-26T20:02:24.999Z,101901.75
2022-07-26T20:07:26.896Z,101905.38
2022-07-26T20:12:28.936Z,101900.91
2022-07-26T20:17:35.460Z,101908.41
2022-07-26T20:22:37.388Z,101908.97
2022-07-26T20:27:39.081Z,101907.72
2022-07-26T20:32:40.797Z,101911.56
2022-07-26T20:37:43.607Z,101904.25
2022-07-26T20:42:45.277Z,101913.28
2022-07-26T20:47:53.051Z,101914.13
2022-07-26T20:52:57.126Z,101914.75
2022-07-26T20:57:58.891Z,101922.28
2022-07-26T21:03:01.780Z,101928.66
2022-07-26T21:08:04.113Z,101934.25
2022-07-26T21:13:05.910Z,101933.13
2022-07-26T21:18:07.933Z,101936.34
2022-07-26T21:23:17.339Z,101940.00
2022-07-26T21:28:20.965Z,101942.13
2022-07-26T21:33:26.177Z,101939.69
2022-07-26T21:38:31.889Z,101934.13
2022-07-26T21:43:33.742Z,101941.41
2022-07-26T21:48:35.420Z,101943.53
2022-07-26T21:53:37.046Z,101946.50
2022-07-26T21:58:38.874Z,101946.28
2022-07-26T22:03:42.861Z,101951.53
2022-07-26T22:08:45.089Z,101951.28
2022-07-26T22:13:46.874Z,101950.22
2022-07-26T22:18:49.197Z,101951.69
2022-07-26T22:23:51.079Z,101958.66
2022-07-26T22:28:53.003Z,101954.88
2022-07-26T22:33:54.625Z,101961.91
2022-07-26T22:38:56.271Z,101961.25
2022-07-26T22:43:57.832Z,101956.88
2022-07-26T22:48:59.524Z,101949.34
2022-07-26T22:54:01.273Z,101938.44
2022-07-26T22:59:02.855Z,101943.13
2022-07-26T23:04:07.160Z,101945.47
2022-07-26T23:09:10.360Z,101941.97
2022-07-26T23:14:12.165Z,101934.44
2022-07-26T23:19:14.194Z,101944.91
2022-07-26T23:24:16.168Z,101942.75
2022-07-26T23:29:17.719Z,101938.03
2022-07-26T23:34:19.454Z,101938.44
2022-07-26T23:39:22.244Z,101935.66
2022-07-26T23:44:23.899Z,101941.88
2022-07-26T23:49:26.102Z,101940.63
2022-07-26T23:54:30.987Z,101946.81
2022-07-26T23:59:32.652Z,101942.34
